College Park, Maryland
Current Conditions -  °F | °C
As of 1:10 PM on Friday 28 Nov 2014 (Local Time) from KCGS Reporting Station
Broken Clouds Broken Clouds  
Wind Chill: 31°   Ceiling: 5000
Heat Index: 37°   Visibility: 10mi
Dew Point: 18°   Wind: 9mph
Humidity: 45%   Direction: 320°NW
Pressure: 30.28"   Gusts: 18mph
Location:  38.98°N, 76.94°W
Report Text: KCGS 281810Z AUTO 32008G16KT 10SM BKN050 03/M08 A3028 RMK AO1
Loading
Personal Weather Stations






























Interactive Weather Map New forecast layout! Learn more

10-Day Weather Forecast

Advertisements
Track Severe Weather on mobile